createdAt,value
2018-01-26T00:00:52.308Z,113.53
2018-01-26T00:03:19.060Z,88.00
2018-01-26T00:05:45.739Z,77.43
2018-01-26T00:08:12.430Z,95.72
2018-01-26T00:10:39.880Z,93.57
2018-01-26T00:13:07.327Z,77.97
2018-01-26T00:15:34.088Z,91.35
2018-01-26T00:18:01.513Z,86.18
2018-01-26T00:20:28.212Z,73.65
2018-01-26T00:22:54.894Z,77.18
2018-01-26T00:25:21.612Z,85.28
2018-01-26T00:27:48.400Z,96.40
2018-01-26T00:30:15.116Z,86.68
2018-01-26T00:32:43.428Z,90.10
2018-01-26T00:35:10.156Z,95.80
2018-01-26T00:37:36.854Z,94.13
2018-01-26T00:40:03.575Z,97.62
2018-01-26T00:42:31.043Z,87.22
2018-01-26T00:44:58.511Z,104.63
2018-01-26T00:47:25.897Z,92.65
2018-01-26T00:49:52.594Z,103.35
2018-01-26T00:52:19.255Z,96.78
2018-01-26T00:54:46.688Z,87.32
2018-01-26T00:57:13.405Z,97.47
2018-01-26T00:59:40.096Z,79.40
2018-01-26T01:02:07.618Z,90.62
2018-01-26T01:04:34.297Z,84.93
2018-01-26T01:07:01.805Z,102.80
2018-01-26T01:09:28.480Z,95.47
2018-01-26T01:11:55.196Z,90.80
2018-01-26T01:14:21.843Z,87.93
2018-01-26T01:16:48.518Z,79.75
2018-01-26T01:19:15.214Z,92.68
2018-01-26T01:21:41.956Z,78.37
2018-01-26T01:24:08.627Z,80.68
2018-01-26T01:26:35.314Z,78.32
2018-01-26T01:29:02.755Z,80.53
2018-01-26T01:31:29.417Z,93.75
2018-01-26T01:33:56.817Z,94.87
2018-01-26T01:36:23.494Z,100.47
2018-01-26T01:38:50.172Z,99.60
2018-01-26T01:41:16.878Z,95.85
2018-01-26T01:43:43.574Z,112.05
2018-01-26T01:46:10.218Z,79.68
2018-01-26T01:48:36.919Z,90.10
2018-01-26T01:51:04.365Z,89.18
2018-01-26T01:53:31.022Z,111.78
2018-01-26T01:55:58.473Z,96.85
2018-01-26T01:58:25.133Z,95.65
2018-01-26T02:00:52.649Z,99.28
2018-01-26T02:03:19.348Z,102.53
2018-01-26T02:05:46.753Z,90.28
2018-01-26T02:08:13.469Z,107.57
2018-01-26T02:10:40.150Z,91.63
2018-01-26T02:13:06.839Z,81.55
2018-01-26T02:15:33.532Z,84.35
2018-01-26T02:18:00.201Z,92.45
2018-01-26T02:20:26.968Z,77.90
2018-01-26T02:22:54.415Z,91.57
2018-01-26T02:25:21.811Z,100.95
2018-01-26T02:27:48.515Z,86.95
2018-01-26T02:30:15.945Z,78.53
2018-01-26T02:32:42.647Z,83.85
2018-01-26T02:35:09.322Z,93.22
2018-01-26T02:37:36.007Z,95.12
2018-01-26T02:40:03.469Z,89.65
2018-01-26T02:42:30.894Z,87.55
2018-01-26T02:44:57.634Z,97.20
2018-01-26T02:47:24.321Z,80.15
2018-01-26T02:49:51.731Z,89.57
2018-01-26T02:52:18.434Z,100.62
2018-01-26T02:54:45.876Z,87.40
2018-01-26T02:57:13.286Z,94.95
2018-01-26T02:59:39.955Z,95.28
2018-01-26T03:02:06.654Z,101.05
2018-01-26T03:04:33.300Z,98.70
2018-01-26T03:06:59.971Z,84.93
2018-01-26T03:09:26.670Z,85.90
2018-01-26T03:11:53.370Z,98.57
2018-01-26T03:14:20.055Z,83.90
2018-01-26T03:16:47.481Z,102.20
2018-01-26T03:19:14.152Z,89.10
2018-01-26T03:21:41.559Z,84.87
2018-01-26T03:24:08.245Z,87.30
2018-01-26T03:26:35.653Z,79.12
2018-01-26T03:29:02.366Z,93.05
2018-01-26T03:31:29.050Z,77.87
2018-01-26T03:33:55.742Z,78.60
2018-01-26T03:36:23.133Z,86.78
2018-01-26T03:38:49.819Z,90.12
2018-01-26T03:41:16.506Z,95.38
2018-01-26T03:43:50.210Z,88.85
2018-01-26T03:46:16.873Z,96.72
2018-01-26T03:48:43.551Z,83.07
2018-01-26T03:51:10.281Z,88.12
2018-01-26T03:53:36.943Z,92.32
2018-01-26T03:56:03.626Z,89.70
2018-01-26T03:58:30.294Z,81.20
2018-01-26T04:00:56.958Z,95.82
2018-01-26T04:03:23.655Z,86.00
2018-01-26T04:05:50.326Z,101.15
2018-01-26T04:08:16.997Z,104.93
2018-01-26T04:10:43.704Z,102.05
2018-01-26T04:13:10.389Z,101.62
2018-01-26T04:15:37.094Z,96.82
2018-01-26T04:18:03.802Z,92.50
2018-01-26T04:20:31.276Z,101.62
2018-01-26T04:22:57.940Z,85.22
2018-01-26T04:25:24.633Z,87.00
2018-01-26T04:27:52.054Z,75.10
2018-01-26T04:30:18.852Z,97.47
2018-01-26T04:32:46.315Z,89.05
2018-01-26T04:35:13.720Z,93.90
2018-01-26T04:37:40.384Z,88.78
2018-01-26T04:40:07.110Z,97.45
2018-01-26T04:42:33.838Z,85.57
2018-01-26T04:45:00.489Z,85.93
2018-01-26T04:47:27.177Z,83.50
2018-01-26T04:49:54.557Z,72.85
2018-01-26T04:52:21.246Z,76.55
2018-01-26T04:54:47.924Z,78.72
2018-01-26T04:57:15.340Z,62.70
2018-01-26T04:59:42.011Z,63.78
2018-01-26T05:02:08.692Z,59.00
2018-01-26T05:04:35.423Z,71.30
2018-01-26T05:07:02.833Z,73.93
2018-01-26T05:09:29.558Z,69.25
2018-01-26T05:11:56.224Z,67.10
2018-01-26T05:14:22.907Z,66.53
2018-01-26T05:16:50.468Z,66.85
2018-01-26T05:19:17.186Z,75.47
2018-01-26T05:21:43.870Z,61.22
2018-01-26T05:24:10.568Z,68.93
2018-01-26T05:26:37.246Z,75.57
2018-01-26T05:29:04.726Z,65.80
2018-01-26T05:31:31.527Z,71.75
2018-01-26T05:33:58.207Z,73.90
2018-01-26T05:36:24.879Z,74.57
2018-01-26T05:38:51.585Z,79.35
2018-01-26T05:41:19.115Z,65.15
2018-01-26T05:43:45.897Z,69.37
2018-01-26T05:46:12.569Z,60.00
2018-01-26T05:48:40.149Z,65.57
2018-01-26T05:51:06.850Z,71.00
2018-01-26T05:53:34.424Z,61.42
2018-01-26T05:56:01.137Z,66.55
2018-01-26T05:58:27.814Z,64.40
2018-01-26T06:00:54.595Z,70.47
2018-01-26T06:03:21.324Z,66.25
2018-01-26T06:05:48.033Z,69.32
2018-01-26T06:08:14.752Z,61.60
2018-01-26T06:10:42.192Z,67.97
2018-01-26T06:13:08.960Z,75.80
2018-01-26T06:15:36.427Z,64.90
2018-01-26T06:18:03.948Z,71.03
2018-01-26T06:20:30.643Z,65.65
2018-01-26T06:22:58.087Z,68.32
2018-01-26T06:25:25.571Z,75.65
2018-01-26T06:27:52.342Z,63.78
2018-01-26T06:30:19.113Z,71.82
2018-01-26T06:32:45.850Z,64.00
2018-01-26T06:35:12.522Z,60.47
2018-01-26T06:37:39.226Z,73.60
2018-01-26T06:40:05.889Z,71.68
2018-01-26T06:42:32.950Z,77.30
2018-01-26T06:44:59.653Z,74.78
2018-01-26T06:47:26.342Z,70.93
2018-01-26T06:49:53.054Z,64.43
2018-01-26T06:52:19.753Z,72.55
2018-01-26T06:54:47.220Z,69.65
2018-01-26T06:57:13.917Z,67.87
2018-01-26T06:59:40.588Z,60.03
2018-01-26T07:02:08.042Z,67.22
2018-01-26T07:04:35.458Z,59.10
2018-01-26T07:07:02.167Z,59.88
2018-01-26T07:09:31.544Z,56.20
2018-01-26T07:11:58.205Z,47.58
2018-01-26T07:14:32.052Z,53.78
2018-01-26T07:16:58.787Z,45.70
2018-01-26T07:19:25.478Z,46.72
2018-01-26T07:21:52.167Z,52.38
2018-01-26T07:24:18.850Z,43.47
2018-01-26T07:26:45.543Z,45.97
2018-01-26T07:29:12.252Z,41.57
2018-01-26T07:31:38.957Z,44.07
2018-01-26T07:34:06.177Z,43.57
2018-01-26T07:36:33.590Z,45.27
2018-01-26T07:39:00.291Z,43.00
2018-01-26T07:41:26.961Z,42.20
2018-01-26T07:43:53.663Z,56.77
2018-01-26T07:46:21.090Z,46.33
2018-01-26T07:48:48.023Z,47.77
2018-01-26T07:51:14.797Z,42.13
2018-01-26T07:53:41.462Z,41.17
2018-01-26T07:56:08.867Z,44.70
2018-01-26T07:58:35.594Z,56.83
2018-01-26T08:01:02.314Z,54.60
2018-01-26T08:03:29.730Z,56.13
2018-01-26T08:05:56.513Z,71.47
2018-01-26T08:08:24.024Z,47.30
2018-01-26T08:10:50.772Z,42.23
2018-01-26T08:13:17.451Z,35.40
2018-01-26T08:15:44.950Z,35.90
2018-01-26T08:18:11.614Z,41.63
2018-01-26T08:20:38.314Z,35.67
2018-01-26T08:23:05.094Z,38.20
2018-01-26T08:25:31.811Z,41.33
2018-01-26T08:27:58.536Z,36.60
2018-01-26T08:30:26.072Z,37.47
2018-01-26T08:32:53.798Z,34.33
2018-01-26T08:35:27.669Z,34.13
2018-01-26T08:37:54.492Z,33.77
2018-01-26T08:40:21.276Z,36.83
2018-01-26T08:42:49.385Z,33.80
2018-01-26T08:45:16.101Z,36.97
2018-01-26T08:47:42.810Z,35.23
2018-01-26T08:50:09.607Z,32.03
2018-01-26T08:52:36.292Z,33.87
2018-01-26T08:55:03.112Z,33.00
2018-01-26T08:57:29.861Z,35.83
2018-01-26T08:59:56.616Z,41.93
2018-01-26T09:02:23.393Z,43.43
2018-01-26T09:17:50.335Z,42.77
2018-01-26T09:20:17.089Z,43.03
2018-01-26T09:22:43.809Z,40.03
2018-01-26T09:25:10.562Z,40.47
2018-01-26T09:27:37.306Z,39.53
2018-01-26T09:30:04.097Z,39.33
2018-01-26T09:32:30.827Z,38.63
2018-01-26T09:34:58.301Z,35.53
2018-01-26T09:37:25.776Z,33.53
2018-01-26T09:39:52.586Z,36.30
2018-01-26T09:42:19.309Z,32.53
2018-01-26T09:44:45.989Z,34.03
2018-01-26T09:47:13.460Z,35.30
2018-01-26T09:49:40.220Z,36.57
2018-01-26T09:52:06.921Z,34.87
2018-01-26T09:54:33.653Z,39.10
2018-01-26T09:57:00.381Z,37.37
2018-01-26T09:59:27.095Z,36.77
2018-01-26T10:01:53.815Z,37.97
2018-01-26T10:04:20.571Z,46.33
2018-01-26T10:06:47.262Z,42.87
2018-01-26T10:09:14.076Z,42.00
2018-01-26T10:11:40.754Z,37.40
2018-01-26T10:14:07.469Z,38.60
2018-01-26T10:16:34.170Z,42.60
2018-01-26T10:19:01.577Z,41.80
2018-01-26T10:21:28.310Z,44.83
2018-01-26T10:23:54.981Z,43.03
2018-01-26T10:26:21.683Z,45.13
2018-01-26T10:28:48.415Z,43.00
2018-01-26T10:31:15.184Z,42.30
2018-01-26T10:33:41.854Z,40.10
2018-01-26T10:36:08.642Z,42.47
2018-01-26T10:38:36.060Z,44.83
2018-01-26T10:41:03.474Z,43.50
2018-01-26T10:43:30.166Z,45.70
2018-01-26T10:45:56.854Z,44.00
2018-01-26T10:48:24.300Z,45.10
2018-01-26T10:50:51.745Z,47.43
2018-01-26T10:53:18.431Z,47.03
2018-01-26T10:55:45.119Z,49.70
2018-01-26T10:58:11.837Z,50.67
2018-01-26T11:00:38.580Z,49.40
2018-01-26T11:03:05.308Z,47.67
2018-01-26T11:05:31.999Z,46.73
2018-01-26T11:07:58.729Z,49.83
2018-01-26T11:10:25.442Z,49.83
2018-01-26T11:12:52.145Z,51.70
2018-01-26T11:15:18.886Z,36.93
2018-01-26T11:17:45.560Z,49.63
2018-01-26T11:20:12.353Z,45.23
2018-01-26T11:22:39.124Z,40.67
2018-01-26T11:25:06.564Z,45.53
2018-01-26T11:27:33.286Z,44.10
2018-01-26T11:29:59.986Z,45.60
2018-01-26T11:32:27.412Z,44.40
2018-01-26T11:34:54.115Z,44.90
2018-01-26T11:37:20.823Z,52.93
2018-01-26T11:39:48.356Z,43.60
2018-01-26T11:42:15.042Z,46.77
2018-01-26T11:44:42.463Z,49.20
2018-01-26T11:47:09.153Z,49.00
2018-01-26T11:49:35.826Z,39.90
2018-01-26T11:52:02.517Z,44.53
2018-01-26T11:54:29.976Z,47.63
2018-01-26T11:56:57.415Z,41.53
2018-01-26T11:59:24.499Z,45.30
2018-01-26T12:01:51.939Z,42.47
2018-01-26T12:04:18.717Z,41.10
2018-01-26T12:06:47.189Z,46.27
2018-01-26T12:09:14.679Z,45.47
2018-01-26T12:11:41.446Z,44.13
2018-01-26T12:14:08.209Z,45.13
2018-01-26T12:16:35.026Z,44.07
2018-01-26T12:19:01.846Z,54.13
2018-01-26T12:21:28.603Z,40.00
2018-01-26T12:23:55.327Z,43.33
2018-01-26T12:26:22.778Z,47.43
2018-01-26T12:28:50.244Z,43.47
2018-01-26T12:31:18.840Z,48.57
2018-01-26T12:33:45.888Z,50.60
2018-01-26T12:36:13.354Z,49.23
2018-01-26T12:38:40.048Z,52.33
2018-01-26T12:41:07.827Z,53.50
2018-01-26T12:43:34.503Z,54.00
2018-01-26T12:59:21.698Z,44.73
2018-01-26T13:01:48.451Z,44.60
2018-01-26T13:04:15.174Z,43.70
2018-01-26T13:06:42.076Z,43.57
2018-01-26T13:09:09.509Z,50.63
2018-01-26T13:11:36.178Z,55.57
2018-01-26T13:14:03.651Z,54.60
2018-01-26T13:16:30.338Z,57.83
2018-01-26T13:18:57.154Z,53.17
2018-01-26T13:21:24.923Z,54.47
2018-01-26T13:23:51.639Z,46.83
2018-01-26T13:26:19.142Z,46.40
2018-01-26T13:28:45.839Z,49.33
2018-01-26T13:31:13.335Z,54.87
2018-01-26T13:33:40.053Z,50.10
2018-01-26T13:36:06.830Z,66.23
2018-01-26T13:38:33.529Z,48.23
2018-01-26T13:41:01.000Z,55.83
2018-01-26T13:43:28.580Z,57.63
2018-01-26T13:45:55.318Z,55.97
2018-01-26T13:48:22.038Z,55.67
2018-01-26T13:50:49.539Z,50.37
2018-01-26T13:53:16.284Z,58.90
2018-01-26T13:55:43.084Z,48.50
2018-01-26T13:58:09.847Z,54.10
2018-01-26T14:00:39.475Z,57.50
2018-01-26T14:03:06.218Z,55.33
2018-01-26T14:05:33.014Z,58.30
2018-01-26T14:07:59.687Z,53.83
2018-01-26T14:10:27.107Z,53.10
2018-01-26T14:12:53.866Z,58.67
2018-01-26T14:15:20.644Z,62.57
2018-01-26T14:17:47.362Z,63.73
2018-01-26T14:20:14.027Z,52.77
2018-01-26T14:22:41.488Z,56.57
2018-01-26T14:25:08.951Z,62.77
2018-01-26T14:27:35.737Z,52.90
2018-01-26T14:30:02.434Z,70.80
2018-01-26T14:32:29.862Z,57.23
2018-01-26T14:34:56.592Z,66.23
2018-01-26T14:37:23.296Z,57.40
2018-01-26T14:39:49.989Z,61.20
2018-01-26T14:42:16.669Z,62.17
2018-01-26T14:44:43.397Z,61.00
2018-01-26T14:47:10.112Z,64.10
2018-01-26T14:49:36.824Z,59.50
2018-01-26T14:52:03.507Z,59.73
2018-01-26T14:54:30.198Z,58.60
2018-01-26T14:56:56.901Z,60.20
2018-01-26T14:59:23.561Z,62.27
2018-01-26T15:01:51.033Z,72.67
2018-01-26T15:04:18.454Z,67.73
2018-01-26T15:06:45.137Z,60.20
2018-01-26T15:09:12.600Z,65.03
2018-01-26T15:11:40.069Z,67.27
2018-01-26T15:14:06.800Z,60.97
2018-01-26T15:16:33.485Z,63.13
2018-01-26T15:19:00.237Z,60.33
2018-01-26T15:21:26.939Z,60.83
2018-01-26T15:23:54.341Z,64.53
2018-01-26T15:26:21.045Z,58.63
2018-01-26T15:28:47.838Z,65.77
2018-01-26T15:31:14.552Z,69.50
2018-01-26T15:33:41.343Z,70.20
2018-01-26T15:36:08.104Z,75.60
2018-01-26T15:38:35.607Z,66.70
2018-01-26T15:41:02.322Z,69.33
2018-01-26T15:43:29.750Z,73.97
2018-01-26T15:45:56.501Z,64.33
2018-01-26T15:48:23.173Z,76.50
2018-01-26T15:50:49.932Z,65.87
2018-01-26T15:53:16.659Z,67.47
2018-01-26T15:55:44.150Z,68.90
2018-01-26T15:58:10.851Z,76.73
2018-01-26T16:00:38.274Z,66.83
2018-01-26T16:03:05.017Z,61.47
2018-01-26T16:05:31.697Z,62.47
2018-01-26T16:07:59.166Z,73.43
2018-01-26T16:10:26.626Z,68.77
2018-01-26T16:12:54.097Z,68.13
2018-01-26T16:15:21.679Z,71.63
2018-01-26T16:17:48.410Z,69.10
2018-01-26T16:20:15.201Z,82.03
2018-01-26T16:22:41.990Z,72.27
2018-01-26T16:25:09.515Z,64.00
2018-01-26T16:27:36.310Z,74.83
2018-01-26T16:30:03.130Z,79.30
2018-01-26T16:32:29.978Z,66.87
2018-01-26T16:34:56.781Z,69.30
2018-01-26T16:37:23.470Z,69.33
2018-01-26T16:39:50.914Z,70.03
2018-01-26T16:42:17.698Z,69.37
2018-01-26T16:44:44.431Z,66.80
2018-01-26T16:47:12.048Z,75.00
2018-01-26T16:49:38.738Z,60.20
2018-01-26T16:52:05.457Z,70.63
2018-01-26T16:54:32.191Z,65.07
2018-01-26T16:56:58.907Z,66.93
2018-01-26T16:59:25.630Z,71.77
2018-01-26T17:01:52.367Z,71.43
2018-01-26T17:04:19.148Z,64.25
2018-01-26T17:06:48.009Z,69.90
2018-01-26T17:09:16.868Z,68.03
2018-01-26T17:11:43.632Z,70.82
2018-01-26T17:14:11.058Z,70.93
2018-01-26T17:16:37.896Z,70.78
2018-01-26T17:19:04.719Z,75.37
2018-01-26T17:21:31.477Z,72.57
2018-01-26T17:23:58.301Z,68.85
2018-01-26T17:26:24.997Z,77.87
2018-01-26T17:28:52.478Z,72.00
2018-01-26T17:31:19.914Z,71.05
2018-01-26T17:33:46.608Z,74.10
2018-01-26T17:36:13.310Z,72.65
2018-01-26T17:38:40.067Z,72.50
2018-01-26T17:41:09.635Z,73.20
2018-01-26T17:43:38.419Z,69.65
2018-01-26T17:46:10.215Z,77.15
2018-01-26T17:48:36.959Z,73.05
2018-01-26T17:51:03.664Z,87.15
2018-01-26T17:53:30.431Z,70.40
2018-01-26T17:55:57.138Z,70.43
2018-01-26T17:58:23.944Z,78.87
2018-01-26T18:00:51.467Z,70.95
2018-01-26T18:03:18.169Z,69.68
2018-01-26T18:05:44.875Z,86.28
2018-01-26T18:08:11.597Z,71.28
2018-01-26T18:10:38.347Z,75.40
2018-01-26T18:13:05.124Z,72.15
2018-01-26T18:15:31.809Z,75.82
2018-01-26T18:17:58.505Z,74.10
2018-01-26T18:20:25.243Z,86.00
2018-01-26T18:22:52.098Z,84.62
2018-01-26T18:25:19.598Z,80.12
2018-01-26T18:27:46.360Z,97.57
2018-01-26T18:30:13.110Z,71.90
2018-01-26T18:32:39.859Z,82.40
2018-01-26T18:35:06.633Z,84.37
2018-01-26T18:37:33.495Z,86.93
2018-01-26T18:40:00.934Z,82.25
2018-01-26T18:42:27.670Z,91.82
2018-01-26T18:44:54.396Z,89.47
2018-01-26T18:47:21.084Z,81.80
2018-01-26T18:49:47.823Z,80.60
2018-01-26T18:52:14.574Z,78.07
2018-01-26T18:54:42.039Z,88.20
2018-01-26T18:57:09.514Z,85.32
2018-01-26T18:59:36.269Z,79.72
2018-01-26T19:02:02.973Z,92.28
2018-01-26T19:04:29.848Z,93.10
2018-01-26T19:06:56.579Z,86.20
2018-01-26T19:09:24.065Z,83.87
2018-01-26T19:11:50.766Z,90.57
2018-01-26T19:14:17.461Z,94.43
2018-01-26T19:16:44.411Z,86.20
2018-01-26T19:19:11.112Z,102.18
2018-01-26T19:21:37.806Z,95.45
2018-01-26T19:24:04.566Z,87.22
2018-01-26T19:26:31.253Z,88.45
2018-01-26T19:28:58.708Z,85.45
2018-01-26T19:31:26.395Z,91.63
2018-01-26T19:33:53.312Z,92.50
2018-01-26T19:36:20.089Z,101.03
2018-01-26T19:38:47.554Z,96.45
2018-01-26T19:41:14.274Z,99.90
2018-01-26T19:43:40.969Z,97.28
2018-01-26T19:46:14.744Z,103.45
2018-01-26T19:48:41.836Z,95.15
2018-01-26T19:51:09.330Z,109.03
2018-01-26T19:53:36.435Z,103.90
2018-01-26T19:56:03.198Z,113.07
2018-01-26T19:58:30.149Z,106.15
2018-01-26T20:00:57.090Z,113.62
2018-01-26T20:03:29.986Z,113.88
2018-01-26T20:06:02.874Z,114.00
2018-01-26T20:08:35.713Z,100.18
2018-01-26T20:11:02.475Z,112.60
2018-01-26T20:13:29.206Z,112.35
2018-01-26T20:15:59.846Z,110.10
2018-01-26T20:18:26.831Z,108.57
2018-01-26T20:20:54.844Z,111.35
2018-01-26T20:23:21.763Z,120.00
2018-01-26T20:25:48.925Z,107.60
2018-01-26T20:28:16.011Z,106.68
2018-01-26T20:30:42.899Z,108.35
2018-01-26T20:33:09.614Z,102.97
2018-01-26T20:35:37.316Z,112.37
2018-01-26T20:38:04.953Z,116.60
2018-01-26T20:40:31.819Z,109.55
2018-01-26T20:42:58.816Z,116.12
2018-01-26T20:45:27.416Z,121.72
2018-01-26T20:47:57.226Z,122.35
2018-01-26T20:50:23.968Z,120.15
2018-01-26T20:52:50.790Z,118.07
2018-01-26T20:55:17.633Z,115.15
2018-01-26T20:57:44.854Z,126.32
2018-01-26T21:00:11.626Z,118.18
2018-01-26T21:02:38.650Z,108.68
2018-01-26T21:05:05.383Z,106.37
2018-01-26T21:07:32.435Z,120.03
2018-01-26T21:09:59.191Z,101.90
2018-01-26T21:12:26.205Z,108.45
2018-01-26T21:14:52.979Z,107.90
2018-01-26T21:17:19.700Z,101.38
2018-01-26T21:19:47.179Z,109.30
2018-01-26T21:22:14.817Z,109.07
2018-01-26T21:24:41.560Z,122.47
2018-01-26T21:27:08.239Z,120.95
2018-01-26T21:29:35.082Z,119.10
2018-01-26T21:32:01.778Z,120.50
2018-01-26T21:34:28.446Z,98.28
2018-01-26T21:36:56.349Z,120.55
2018-01-26T21:39:23.934Z,112.57
2018-01-26T21:41:50.691Z,103.38
2018-01-26T21:44:17.438Z,114.30
2018-01-26T21:46:44.381Z,101.90
2018-01-26T21:49:11.119Z,112.37
2018-01-26T21:51:37.822Z,98.00
2018-01-26T21:54:05.323Z,101.68
2018-01-26T21:56:32.018Z,102.80
2018-01-26T21:58:59.460Z,105.95
2018-01-26T22:01:26.152Z,106.25
2018-01-26T22:03:53.939Z,104.97
2018-01-26T22:09:20.904Z,98.55
2018-01-26T22:11:47.735Z,97.03
2018-01-26T22:14:14.491Z,95.85
2018-01-26T22:16:41.177Z,83.15
2018-01-26T22:19:07.923Z,105.97
2018-01-26T22:21:34.614Z,95.32
2018-01-26T22:24:01.300Z,96.72
2018-01-26T22:26:28.102Z,92.35
2018-01-26T22:28:54.785Z,114.80
2018-01-26T22:31:21.443Z,119.68
2018-01-26T22:33:48.169Z,114.70
2018-01-26T22:36:14.834Z,128.80
2018-01-26T22:38:41.570Z,112.70
2018-01-26T22:41:08.286Z,109.63
2018-01-26T22:43:34.978Z,96.63
2018-01-26T22:46:02.447Z,86.10
2018-01-26T22:48:29.918Z,81.25
2018-01-26T22:50:57.410Z,92.03
2018-01-26T22:53:24.144Z,76.12
2018-01-26T22:55:50.881Z,66.82
2018-01-26T22:58:17.636Z,74.60
2018-01-26T23:00:44.306Z,73.85
2018-01-26T23:03:11.087Z,70.75
2018-01-26T23:05:38.575Z,75.30
2018-01-26T23:08:05.353Z,65.70
2018-01-26T23:10:32.247Z,76.40
2018-01-26T23:12:59.737Z,66.70
2018-01-26T23:15:26.545Z,75.37
2018-01-26T23:17:53.998Z,77.18
2018-01-26T23:20:21.602Z,82.37
2018-01-26T23:22:48.366Z,62.75
2018-01-26T23:25:15.090Z,69.72
2018-01-26T23:27:41.774Z,53.58
2018-01-26T23:30:08.494Z,59.03
2018-01-26T23:32:35.249Z,81.82
2018-01-26T23:35:01.990Z,78.15
2018-01-26T23:37:28.708Z,91.63
2018-01-26T23:39:55.427Z,125.47
2018-01-26T23:42:22.837Z,104.38
2018-01-26T23:44:49.550Z,123.22
2018-01-26T23:47:16.314Z,227.02
2018-01-26T23:49:42.987Z,593.37
2018-01-26T23:52:09.672Z,549.90
2018-01-26T23:54:36.430Z,120.72
2018-01-26T23:57:03.089Z,105.53
2018-01-26T23:59:29.756Z,132.43
